createdAt,value
2018-10-18T00:04:49.533Z,3.57
2018-10-18T00:10:44.528Z,4.25
2018-10-18T00:16:39.534Z,3.62
2018-10-18T00:22:34.541Z,3.56
2018-10-18T00:28:29.542Z,2.96
2018-10-18T00:34:24.542Z,2.92
2018-10-18T00:40:19.579Z,3.01
2018-10-18T00:46:14.540Z,2.91
2018-10-18T00:52:09.597Z,2.98
2018-10-18T00:58:04.572Z,3.15
2018-10-18T01:03:59.571Z,3.67
2018-10-18T01:09:54.536Z,2.88
2018-10-18T01:15:49.597Z,3.85
2018-10-18T01:21:44.561Z,2.88
2018-10-18T01:27:39.565Z,3.3
2018-10-18T01:33:34.607Z,3.1
2018-10-18T01:39:29.569Z,2.96
2018-10-18T01:45:24.593Z,3.32
2018-10-18T01:51:19.565Z,3.26
2018-10-18T01:57:14.612Z,3.15
2018-10-18T02:03:09.589Z,2.89
2018-10-18T02:09:04.588Z,3.39
2018-10-18T02:14:59.613Z,3.45
2018-10-18T02:20:54.631Z,3.84
2018-10-18T02:26:49.623Z,3.98
2018-10-18T02:32:44.631Z,3.92
2018-10-18T02:38:39.637Z,4.34
2018-10-18T02:44:34.644Z,3.59
2018-10-18T02:50:29.635Z,4.34
2018-10-18T02:56:24.610Z,4.76
2018-10-18T03:02:19.648Z,5.17
2018-10-18T03:08:14.682Z,7.77
2018-10-18T03:14:09.654Z,4.61
2018-10-18T03:20:04.643Z,4.41
2018-10-18T03:25:59.633Z,5.36
2018-10-18T03:31:54.627Z,4.96
2018-10-18T03:37:49.630Z,4.89
2018-10-18T03:43:44.662Z,4.3
2018-10-18T03:49:39.688Z,4.53
2018-10-18T03:55:34.641Z,4.7
2018-10-18T04:01:29.667Z,4.1
2018-10-18T04:07:24.671Z,4.4
2018-10-18T04:13:19.788Z,4.59
2018-10-18T04:19:14.673Z,4.53
2018-10-18T04:25:09.693Z,4.75
2018-10-18T04:31:04.698Z,4.69
2018-10-18T04:36:59.681Z,4.91
2018-10-18T04:42:54.672Z,5.06
2018-10-18T04:48:49.741Z,5.24
2018-10-18T04:54:44.680Z,4.5
2018-10-18T05:00:39.685Z,4.85
2018-10-18T05:06:34.745Z,4.32
2018-10-18T05:12:29.738Z,5.49
2018-10-18T05:18:24.708Z,6.6
2018-10-18T05:24:19.696Z,5.65
2018-10-18T05:30:14.696Z,5.94
2018-10-18T05:36:09.716Z,5.79
2018-10-18T05:42:04.707Z,4.77
2018-10-18T05:47:59.719Z,4.22
2018-10-18T05:53:54.820Z,5.62
2018-10-18T05:59:49.715Z,5.16
2018-10-18T06:05:44.751Z,6.45
2018-10-18T06:11:39.718Z,6.6
2018-10-18T06:17:34.721Z,4.93
2018-10-18T06:23:29.857Z,6.44
2018-10-18T06:29:24.759Z,5.64
2018-10-18T06:35:19.722Z,5.21
2018-10-18T06:41:14.820Z,5.67
2018-10-18T06:47:09.956Z,6.58
2018-10-18T06:53:04.782Z,6.87
2018-10-18T06:58:59.767Z,7.33
2018-10-18T07:04:54.747Z,7.3
2018-10-18T07:10:49.880Z,6.6
2018-10-18T07:16:44.748Z,6.24
2018-10-18T07:22:39.811Z,7.6
2018-10-18T07:28:34.780Z,8.57
2018-10-18T07:34:29.776Z,7.67
2018-10-18T07:40:24.814Z,8.76
2018-10-18T07:46:19.772Z,5.95
2018-10-18T07:52:14.849Z,6.45
2018-10-18T07:58:09.865Z,5.8
2018-10-18T08:04:04.791Z,11.59
2018-10-18T08:09:59.817Z,6.79
2018-10-18T08:15:54.806Z,6.48
2018-10-18T08:21:49.804Z,6.33
2018-10-18T08:27:44.792Z,7.14
2018-10-18T08:33:39.807Z,5.77
2018-10-18T08:39:34.820Z,6.78
2018-10-18T08:45:29.819Z,6.59
2018-10-18T08:51:24.831Z,7.2
2018-10-18T08:57:19.832Z,7.03
2018-10-18T09:03:14.843Z,7.08
2018-10-18T09:09:09.933Z,7.97
2018-10-18T09:15:04.940Z,7.37
2018-10-18T09:20:59.821Z,7.49
2018-10-18T09:26:54.833Z,7.73
2018-10-18T09:32:49.836Z,7.5
2018-10-18T09:38:44.844Z,7.5
2018-10-18T09:44:39.856Z,7.47
2018-10-18T09:50:34.845Z,7.34
2018-10-18T09:56:29.849Z,7.03
2018-10-18T10:02:24.887Z,5.77
2018-10-18T10:08:19.881Z,6.14
2018-10-18T10:14:14.872Z,7.41
2018-10-18T10:20:09.859Z,6.86
2018-10-18T10:26:04.901Z,6.84
2018-10-18T10:31:59.943Z,6.08
2018-10-18T10:37:54.951Z,6.28
2018-10-18T10:43:49.860Z,7.04
2018-10-18T10:49:44.870Z,5.61
2018-10-18T10:55:39.901Z,6.04
2018-10-18T11:01:34.880Z,5.81
2018-10-18T11:07:29.889Z,5.7
2018-10-18T11:13:24.929Z,6.33
2018-10-18T11:19:19.876Z,8.76
2018-10-18T11:25:14.927Z,17.14
2018-10-18T11:31:09.918Z,20.05
2018-10-18T11:37:04.902Z,27.02
2018-10-18T11:42:59.932Z,29.76
2018-10-18T11:48:54.913Z,25.3
2018-10-18T11:54:49.937Z,21.35
2018-10-18T12:00:44.935Z,16.69
2018-10-18T12:06:39.963Z,14.31
2018-10-18T12:12:34.942Z,14.81
2018-10-18T12:18:29.939Z,11.14
2018-10-18T12:24:24.936Z,10.28
2018-10-18T12:30:19.970Z,9.11
2018-10-18T12:36:14.952Z,9.47
2018-10-18T12:42:09.953Z,7.35
2018-10-18T12:48:05.095Z,6.68
2018-10-18T12:53:59.966Z,6.11
2018-10-18T12:59:55.006Z,5.71
2018-10-18T13:05:49.954Z,6.21
2018-10-18T13:11:44.964Z,5.36
2018-10-18T13:17:40.005Z,5.89
2018-10-18T13:23:34.944Z,5.53
2018-10-18T13:29:29.984Z,5.34
2018-10-18T13:35:24.983Z,6.25
2018-10-18T13:41:19.970Z,6.11
2018-10-18T13:47:14.984Z,6.35
2018-10-18T13:53:10.000Z,6.48
2018-10-18T13:59:05.137Z,6.09
2018-10-18T14:05:00.159Z,5.53
2018-10-18T14:10:55.047Z,5.81
2018-10-18T14:16:50.005Z,7.45
2018-10-18T14:22:45.005Z,5.7
2018-10-18T14:28:40.006Z,6.03
2018-10-18T14:34:35.015Z,5.57
2018-10-18T14:40:30.000Z,7.35
2018-10-18T14:46:25.098Z,8.7
2018-10-18T14:52:20.178Z,7.54
2018-10-18T14:58:15.054Z,8.56
2018-10-18T15:04:10.076Z,8.58
2018-10-18T15:10:05.037Z,8.02
2018-10-18T15:16:00.038Z,9.32
2018-10-18T15:21:55.023Z,8.09
2018-10-18T15:27:50.179Z,8.35
2018-10-18T15:33:45.038Z,8.36
2018-10-18T15:39:40.132Z,8.49
2018-10-18T15:45:35.060Z,8.53
2018-10-18T15:51:30.074Z,10.64
2018-10-18T15:57:25.057Z,8.94
2018-10-18T16:03:20.059Z,8.89
2018-10-18T16:09:15.060Z,10.05
2018-10-18T16:15:10.094Z,10.72
2018-10-18T16:21:05.058Z,10.87
2018-10-18T16:27:00.089Z,10.43
2018-10-18T16:32:55.083Z,12.05
2018-10-18T16:38:50.070Z,10.85
2018-10-18T16:44:45.112Z,10.45
2018-10-18T16:50:40.082Z,10.78
2018-10-18T16:56:35.085Z,10.41
2018-10-18T17:02:30.132Z,10.42
2018-10-18T17:08:25.084Z,8.5
2018-10-18T17:14:20.099Z,10.26
2018-10-18T17:20:15.245Z,11.19
2018-10-18T17:26:10.186Z,9.88
2018-10-18T17:32:05.172Z,10.15
2018-10-18T17:38:00.200Z,11.26
2018-10-18T17:43:55.143Z,10.5
2018-10-18T17:49:50.131Z,10.59
2018-10-18T17:55:45.149Z,11.92
2018-10-18T18:01:40.143Z,10.38
2018-10-18T18:07:35.132Z,9.08
2018-10-18T18:13:30.141Z,10.66
2018-10-18T18:19:25.180Z,10.25
2018-10-18T18:25:20.153Z,10.97
2018-10-18T18:31:15.188Z,10.02
2018-10-18T18:37:10.148Z,9.15
2018-10-18T18:43:05.145Z,12.3
2018-10-18T18:49:00.167Z,11.6
2018-10-18T18:54:55.180Z,11.32
2018-10-18T19:00:50.162Z,11.05
2018-10-18T19:06:45.207Z,13.23
2018-10-18T19:12:40.198Z,12.94
2018-10-18T19:18:35.169Z,15.49
2018-10-18T19:24:30.191Z,12.28
2018-10-18T19:30:25.197Z,11.48
2018-10-18T19:36:20.187Z,11.57
2018-10-18T19:42:15.231Z,12.38
2018-10-18T19:48:10.197Z,8.83
2018-10-18T19:54:05.179Z,11.07
2018-10-18T20:00:00.228Z,11.71
2018-10-18T20:05:55.190Z,13.98
2018-10-18T20:11:50.192Z,12.82
2018-10-18T20:17:45.236Z,11.58
2018-10-18T20:23:40.191Z,10.79
2018-10-18T20:29:35.231Z,8.62
2018-10-18T20:35:30.288Z,12.66
2018-10-18T20:41:25.250Z,8.93
2018-10-18T20:47:20.452Z,11.17
2018-10-18T20:53:15.373Z,11.44
2018-10-18T20:59:10.232Z,9.81
2018-10-18T21:05:05.270Z,11.4
2018-10-18T21:11:00.245Z,8.99
2018-10-18T21:16:55.299Z,10.71
2018-10-18T21:22:50.258Z,9.66
2018-10-18T21:28:45.263Z,11.53
2018-10-18T21:34:40.331Z,10.75
2018-10-18T21:40:35.292Z,12.18
2018-10-18T21:46:30.276Z,11.37
2018-10-18T21:52:25.272Z,11.74
2018-10-18T21:58:20.278Z,11.59
2018-10-18T22:04:15.284Z,10.06
2018-10-18T22:10:10.260Z,10.55
2018-10-18T22:16:05.281Z,10.26
2018-10-18T22:22:00.288Z,11.87
2018-10-18T22:27:55.283Z,10.03
2018-10-18T22:33:50.287Z,10.56
2018-10-18T22:39:45.292Z,8.3
2018-10-18T22:45:40.329Z,10.09
2018-10-18T22:51:35.320Z,9.57
2018-10-18T22:57:30.296Z,8.88
2018-10-18T23:03:25.318Z,10.7
2018-10-18T23:09:20.356Z,9.72
2018-10-18T23:15:15.410Z,9.45
2018-10-18T23:21:10.370Z,8.79
2018-10-18T23:27:05.425Z,9.64
2018-10-18T23:33:00.376Z,10.57
2018-10-18T23:38:55.358Z,9.54
2018-10-18T23:44:50.328Z,9.28
2018-10-18T23:50:45.317Z,11.94
2018-10-18T23:56:40.324Z,13.33
